sensor_id;sensor_type;location;lat;lon;timestamp;P1;durP1;ratioP1;P2;durP2;ratioP2
17528;SDS011;8882;53.192;8.184;2023-04-03T04:34:01;3.70;;;1.57;;
17528;SDS011;8882;53.192;8.184;2023-04-03T04:36:27;3.33;;;1.80;;
17528;SDS011;8882;53.192;8.184;2023-04-03T04:38:52;5.23;;;1.60;;
17528;SDS011;8882;53.192;8.184;2023-04-03T04:41:20;4.10;;;1.70;;
17528;SDS011;8882;53.192;8.184;2023-04-03T04:43:47;2.80;;;2.20;;
17528;SDS011;8882;53.192;8.184;2023-04-03T04:46:16;3.47;;;1.77;;
17528;SDS011;8882;53.192;8.184;2023-04-03T04:48:42;3.00;;;1.70;;
17528;SDS011;8882;53.192;8.184;2023-04-03T04:51:08;5.43;;;2.00;;
17528;SDS011;8882;53.192;8.184;2023-04-03T04:53:34;4.27;;;2.27;;
17528;SDS011;8882;53.192;8.184;2023-04-03T04:55:59;3.67;;;2.00;;
17528;SDS011;8882;53.192;8.184;2023-04-03T04:58:25;3.67;;;2.03;;
17528;SDS011;8882;53.192;8.184;2023-04-03T05:01:04;4.33;;;2.43;;
17528;SDS011;8882;53.192;8.184;2023-04-03T05:03:31;4.97;;;2.47;;
17528;SDS011;8882;53.192;8.184;2023-04-03T05:05:57;4.80;;;2.20;;
17528;SDS011;8882;53.192;8.184;2023-04-03T05:08:23;2.87;;;2.13;;
17528;SDS011;8882;53.192;8.184;2023-04-03T05:10:49;4.13;;;2.17;;
17528;SDS011;8882;53.192;8.184;2023-04-03T05:13:15;3.20;;;2.20;;
17528;SDS011;8882;53.192;8.184;2023-04-03T05:15:41;4.40;;;2.17;;
17528;SDS011;8882;53.192;8.184;2023-04-03T05:18:07;5.20;;;2.60;;
17528;SDS011;8882;53.192;8.184;2023-04-03T05:20:32;6.37;;;2.20;;
17528;SDS011;8882;53.192;8.184;2023-04-03T05:22:58;4.87;;;2.00;;
17528;SDS011;8882;53.192;8.184;2023-04-03T05:25:24;4.93;;;2.40;;
17528;SDS011;8882;53.192;8.184;2023-04-03T05:27:50;1.80;;;1.70;;
17528;SDS011;8882;53.192;8.184;2023-04-03T05:30:16;5.53;;;2.27;;
17528;SDS011;8882;53.192;8.184;2023-04-03T05:32:42;10.13;;;2.73;;
17528;SDS011;8882;53.192;8.184;2023-04-03T05:35:07;3.17;;;2.00;;
17528;SDS011;8882;53.192;8.184;2023-04-03T05:37:33;3.83;;;2.50;;
17528;SDS011;8882;53.192;8.184;2023-04-03T05:39:59;6.90;;;3.50;;
17528;SDS011;8882;53.192;8.184;2023-04-03T05:42:25;5.23;;;2.50;;
17528;SDS011;8882;53.192;8.184;2023-04-03T05:44:51;4.53;;;2.60;;
17528;SDS011;8882;53.192;8.184;2023-04-03T05:47:17;5.33;;;2.60;;
17528;SDS011;8882;53.192;8.184;2023-04-03T05:49:43;7.13;;;2.47;;
17528;SDS011;8882;53.192;8.184;2023-04-03T05:54:51;5.67;;;2.80;;
17528;SDS011;8882;53.192;8.184;2023-04-03T05:57:16;3.83;;;2.10;;
17528;SDS011;8882;53.192;8.184;2023-04-03T05:59:43;5.23;;;2.33;;
17528;SDS011;8882;53.192;8.184;2023-04-03T06:02:11;3.90;;;2.37;;
17528;SDS011;8882;53.192;8.184;2023-04-03T06:04:37;5.63;;;2.60;;
17528;SDS011;8882;53.192;8.184;2023-04-03T06:07:03;4.63;;;2.60;;
17528;SDS011;8882;53.192;8.184;2023-04-03T06:09:29;5.57;;;3.20;;
17528;SDS011;8882;53.192;8.184;2023-04-03T06:11:54;3.07;;;2.47;;
17528;SDS011;8882;53.192;8.184;2023-04-03T06:14:20;3.30;;;2.63;;
17528;SDS011;8882;53.192;8.184;2023-04-03T06:16:46;5.13;;;2.70;;
17528;SDS011;8882;53.192;8.184;2023-04-03T06:19:12;5.47;;;2.40;;
17528;SDS011;8882;53.192;8.184;2023-04-03T06:21:38;5.03;;;2.60;;
17528;SDS011;8882;53.192;8.184;2023-04-03T06:24:04;6.87;;;2.80;;
17528;SDS011;8882;53.192;8.184;2023-04-03T06:26:30;4.47;;;2.40;;
17528;SDS011;8882;53.192;8.184;2023-04-03T06:28:56;6.27;;;2.70;;
17528;SDS011;8882;53.192;8.184;2023-04-03T06:31:22;4.67;;;2.63;;
17528;SDS011;8882;53.192;8.184;2023-04-03T06:33:48;4.47;;;2.63;;
17528;SDS011;8882;53.192;8.184;2023-04-03T06:36:13;4.53;;;2.30;;
17528;SDS011;8882;53.192;8.184;2023-04-03T06:38:39;4.83;;;2.43;;
17528;SDS011;8882;53.192;8.184;2023-04-03T06:41:04;3.53;;;2.00;;
17528;SDS011;8882;53.192;8.184;2023-04-03T06:43:30;2.73;;;2.10;;
17528;SDS011;8882;53.192;8.184;2023-04-03T06:45:58;8.00;;;2.50;;
17528;SDS011;8882;53.192;8.184;2023-04-03T06:48:24;4.07;;;2.13;;
17528;SDS011;8882;53.192;8.184;2023-04-03T06:50:49;3.63;;;2.43;;
17528;SDS011;8882;53.192;8.184;2023-04-03T06:53:15;4.33;;;2.33;;
17528;SDS011;8882;53.192;8.184;2023-04-03T06:55:41;4.73;;;2.40;;
17528;SDS011;8882;53.192;8.184;2023-04-03T06:58:06;3.27;;;2.33;;
17528;SDS011;8882;53.192;8.184;2023-04-03T07:00:32;4.50;;;2.40;;
17528;SDS011;8882;53.192;8.184;2023-04-03T07:02:58;4.67;;;2.47;;
17528;SDS011;8882;53.192;8.184;2023-04-03T07:05:24;4.77;;;1.70;;
17528;SDS011;8882;53.192;8.184;2023-04-03T07:07:50;4.27;;;1.90;;
17528;SDS011;8882;53.192;8.184;2023-04-03T07:10:16;6.80;;;1.80;;
17528;SDS011;8882;53.192;8.184;2023-04-03T07:12:41;2.00;;;1.73;;
17528;SDS011;8882;53.192;8.184;2023-04-03T07:15:07;3.20;;;2.07;;
17528;SDS011;8882;53.192;8.184;2023-04-03T07:17:33;3.33;;;2.00;;
17528;SDS011;8882;53.192;8.184;2023-04-03T07:19:59;3.17;;;1.63;;
17528;SDS011;8882;53.192;8.184;2023-04-03T07:22:25;5.33;;;1.87;;
17528;SDS011;8882;53.192;8.184;2023-04-03T07:24:50;4.77;;;1.50;;
17528;SDS011;8882;53.192;8.184;2023-04-03T07:27:16;3.23;;;1.57;;
17528;SDS011;8882;53.192;8.184;2023-04-03T07:29:42;4.53;;;2.10;;
17528;SDS011;8882;53.192;8.184;2023-04-03T07:32:08;1.60;;;1.40;;
17528;SDS011;8882;53.192;8.184;2023-04-03T07:34:34;3.30;;;1.30;;
17528;SDS011;8882;53.192;8.184;2023-04-03T07:37:00;3.90;;;1.50;;
17528;SDS011;8882;53.192;8.184;2023-04-03T07:39:27;2.43;;;1.50;;
17528;SDS011;8882;53.192;8.184;2023-04-03T07:41:53;5.20;;;1.73;;
17528;SDS011;8882;53.192;8.184;2023-04-03T07:44:21;3.17;;;1.33;;
17528;SDS011;8882;53.192;8.184;2023-04-03T07:46:46;2.43;;;1.47;;
17528;SDS011;8882;53.192;8.184;2023-04-03T07:49:13;5.93;;;1.80;;
17528;SDS011;8882;53.192;8.184;2023-04-03T07:51:39;3.20;;;1.50;;
17528;SDS011;8882;53.192;8.184;2023-04-03T07:54:04;6.37;;;2.40;;
17528;SDS011;8882;53.192;8.184;2023-04-03T07:56:30;2.93;;;1.40;;
17528;SDS011;8882;53.192;8.184;2023-04-03T07:58:56;3.97;;;1.47;;
17528;SDS011;8882;53.192;8.184;2023-04-03T08:01:22;1.07;;;0.90;;
17528;SDS011;8882;53.192;8.184;2023-04-03T08:03:47;4.37;;;1.33;;
17528;SDS011;8882;53.192;8.184;2023-04-03T08:06:13;3.97;;;1.33;;
17528;SDS011;8882;53.192;8.184;2023-04-03T08:08:39;1.20;;;1.10;;
17528;SDS011;8882;53.192;8.184;2023-04-03T08:11:06;2.83;;;1.50;;
17528;SDS011;8882;53.192;8.184;2023-04-03T08:13:33;1.30;;;1.20;;
17528;SDS011;8882;53.192;8.184;2023-04-03T08:16:06;1.13;;;1.03;;
17528;SDS011;8882;53.192;8.184;2023-04-03T08:18:33;2.40;;;1.07;;
17528;SDS011;8882;53.192;8.184;2023-04-03T08:20:58;2.10;;;1.20;;
17528;SDS011;8882;53.192;8.184;2023-04-03T08:23:24;2.80;;;1.20;;
17528;SDS011;8882;53.192;8.184;2023-04-03T08:25:50;1.60;;;1.50;;
17528;SDS011;8882;53.192;8.184;2023-04-03T08:28:15;3.40;;;1.43;;
17528;SDS011;8882;53.192;8.184;2023-04-03T08:30:41;3.80;;;1.27;;
17528;SDS011;8882;53.192;8.184;2023-04-03T08:33:07;4.10;;;1.30;;
17528;SDS011;8882;53.192;8.184;2023-04-03T08:35:33;1.47;;;1.10;;
17528;SDS011;8882;53.192;8.184;2023-04-03T08:38:03;1.77;;;1.33;;
17528;SDS011;8882;53.192;8.184;2023-04-03T08:40:29;2.90;;;1.07;;
17528;SDS011;8882;53.192;8.184;2023-04-03T08:45:50;1.77;;;0.83;;
17528;SDS011;8882;53.192;8.184;2023-04-03T08:51:00;1.07;;;0.97;;
17528;SDS011;8882;53.192;8.184;2023-04-03T08:53:30;1.90;;;1.10;;
17528;SDS011;8882;53.192;8.184;2023-04-03T08:56:00;1.53;;;1.17;;
17528;SDS011;8882;53.192;8.184;2023-04-03T08:58:30;1.63;;;1.17;;
17528;SDS011;8882;53.192;8.184;2023-04-03T09:01:07;1.90;;;1.17;;
17528;SDS011;8882;53.192;8.184;2023-04-03T09:03:48;2.40;;;1.13;;
17528;SDS011;8882;53.192;8.184;2023-04-03T09:06:15;3.70;;;1.03;;
17528;SDS011;8882;53.192;8.184;2023-04-03T09:08:51;1.50;;;1.10;;
17528;SDS011;8882;53.192;8.184;2023-04-03T09:11:28;1.17;;;0.80;;
17528;SDS011;8882;53.192;8.184;2023-04-03T09:17:15;4.23;;;1.10;;
17528;SDS011;8882;53.192;8.184;2023-04-03T09:20:03;1.63;;;0.80;;
17528;SDS011;8882;53.192;8.184;2023-04-03T09:22:41;0.80;;;0.80;;
17528;SDS011;8882;53.192;8.184;2023-04-03T09:25:14;0.60;;;0.50;;
17528;SDS011;8882;53.192;8.184;2023-04-03T09:27:43;0.63;;;0.60;;
17528;SDS011;8882;53.192;8.184;2023-04-03T09:30:19;2.37;;;0.80;;
17528;SDS011;8882;53.192;8.184;2023-04-03T09:32:49;1.03;;;0.70;;
17528;SDS011;8882;53.192;8.184;2023-04-03T09:35:23;1.67;;;0.80;;
17528;SDS011;8882;53.192;8.184;2023-04-03T09:37:51;0.60;;;0.60;;
17528;SDS011;8882;53.192;8.184;2023-04-03T09:42:50;1.07;;;0.60;;
17528;SDS011;8882;53.192;8.184;2023-04-03T09:45:24;1.27;;;0.70;;
17528;SDS011;8882;53.192;8.184;2023-04-03T09:48:04;0.60;;;0.60;;
17528;SDS011;8882;53.192;8.184;2023-04-03T09:50:33;2.23;;;0.60;;
17528;SDS011;8882;53.192;8.184;2023-04-03T09:53:03;1.20;;;0.80;;
17528;SDS011;8882;53.192;8.184;2023-04-03T09:55:32;1.40;;;0.70;;
17528;SDS011;8882;53.192;8.184;2023-04-03T09:58:05;2.07;;;0.70;;
17528;SDS011;8882;53.192;8.184;2023-04-03T10:00:57;1.33;;;0.80;;
17528;SDS011;8882;53.192;8.184;2023-04-03T10:03:42;1.20;;;0.60;;
17528;SDS011;8882;53.192;8.184;2023-04-03T10:06:22;2.13;;;0.67;;
17528;SDS011;8882;53.192;8.184;2023-04-03T10:08:58;1.10;;;0.60;;
17528;SDS011;8882;53.192;8.184;2023-04-03T10:11:26;2.87;;;0.80;;
17528;SDS011;8882;53.192;8.184;2023-04-03T10:13:53;0.70;;;0.70;;
17528;SDS011;8882;53.192;8.184;2023-04-03T10:16:23;0.80;;;0.80;;
17528;SDS011;8882;53.192;8.184;2023-04-03T10:22:00;1.07;;;0.70;;
17528;SDS011;8882;53.192;8.184;2023-04-03T10:27:35;1.50;;;0.73;;
17528;SDS011;8882;53.192;8.184;2023-04-03T10:30:18;0.83;;;0.80;;
17528;SDS011;8882;53.192;8.184;2023-04-03T10:32:58;1.50;;;0.90;;
17528;SDS011;8882;53.192;8.184;2023-04-03T10:38:55;0.87;;;0.77;;
17528;SDS011;8882;53.192;8.184;2023-04-03T10:41:47;2.33;;;0.70;;
17528;SDS011;8882;53.192;8.184;2023-04-03T10:52:50;2.67;;;0.80;;
17528;SDS011;8882;53.192;8.184;2023-04-03T10:55:30;0.97;;;0.87;;
17528;SDS011;8882;53.192;8.184;2023-04-03T10:58:04;0.70;;;0.70;;
17528;SDS011;8882;53.192;8.184;2023-04-03T11:00:41;1.23;;;0.50;;
17528;SDS011;8882;53.192;8.184;2023-04-03T11:03:15;0.70;;;0.70;;
17528;SDS011;8882;53.192;8.184;2023-04-03T11:06:01;0.93;;;0.70;;
17528;SDS011;8882;53.192;8.184;2023-04-03T11:11:22;1.00;;;0.63;;
17528;SDS011;8882;53.192;8.184;2023-04-03T11:13:54;0.87;;;0.70;;
17528;SDS011;8882;53.192;8.184;2023-04-03T11:16:29;1.43;;;0.80;;
17528;SDS011;8882;53.192;8.184;2023-04-03T11:19:02;2.00;;;0.80;;
17528;SDS011;8882;53.192;8.184;2023-04-03T11:21:41;1.57;;;0.73;;
17528;SDS011;8882;53.192;8.184;2023-04-03T11:24:22;0.67;;;0.60;;
17528;SDS011;8882;53.192;8.184;2023-04-03T11:26:50;0.83;;;0.50;;
17528;SDS011;8882;53.192;8.184;2023-04-03T11:29:19;0.50;;;0.50;;
17528;SDS011;8882;53.192;8.184;2023-04-03T11:34:58;0.60;;;0.60;;
17528;SDS011;8882;53.192;8.184;2023-04-03T11:37:31;0.60;;;0.60;;
17528;SDS011;8882;53.192;8.184;2023-04-03T11:40:13;0.93;;;0.70;;
17528;SDS011;8882;53.192;8.184;2023-04-03T11:42:54;1.13;;;0.63;;
17528;SDS011;8882;53.192;8.184;2023-04-03T11:50:47;0.90;;;0.70;;
17528;SDS011;8882;53.192;8.184;2023-04-03T11:55:42;1.27;;;0.70;;
17528;SDS011;8882;53.192;8.184;2023-04-03T11:58:12;1.20;;;0.70;;
17528;SDS011;8882;53.192;8.184;2023-04-03T12:19:03;0.60;;;0.60;;
17528;SDS011;8882;53.192;8.184;2023-04-03T12:32:11;0.70;;;0.67;;
17528;SDS011;8882;53.192;8.184;2023-04-03T12:41:02;2.10;;;0.60;;
17528;SDS011;8882;53.192;8.184;2023-04-03T12:44:09;0.53;;;0.53;;
17528;SDS011;8882;53.192;8.184;2023-04-03T12:46:48;0.77;;;0.77;;
17528;SDS011;8882;53.192;8.184;2023-04-03T12:52:00;1.00;;;0.63;;
17528;SDS011;8882;53.192;8.184;2023-04-03T12:54:37;1.13;;;0.70;;
17528;SDS011;8882;53.192;8.184;2023-04-03T12:57:11;0.67;;;0.63;;
17528;SDS011;8882;53.192;8.184;2023-04-03T12:59:45;1.33;;;0.80;;
17528;SDS011;8882;53.192;8.184;2023-04-03T13:04:52;1.73;;;0.97;;
17528;SDS011;8882;53.192;8.184;2023-04-03T13:07:23;1.17;;;0.73;;
17528;SDS011;8882;53.192;8.184;2023-04-03T13:10:04;0.50;;;0.50;;
17528;SDS011;8882;53.192;8.184;2023-04-03T13:12:35;1.10;;;0.80;;
17528;SDS011;8882;53.192;8.184;2023-04-03T13:15:15;0.90;;;0.70;;
17528;SDS011;8882;53.192;8.184;2023-04-03T13:17:43;1.17;;;0.90;;
17528;SDS011;8882;53.192;8.184;2023-04-03T13:20:11;0.50;;;0.50;;
17528;SDS011;8882;53.192;8.184;2023-04-03T13:22:48;1.90;;;0.63;;
17528;SDS011;8882;53.192;8.184;2023-04-03T13:25:18;1.13;;;0.60;;
17528;SDS011;8882;53.192;8.184;2023-04-03T13:27:46;0.50;;;0.50;;
17528;SDS011;8882;53.192;8.184;2023-04-03T13:30:20;1.90;;;0.77;;
17528;SDS011;8882;53.192;8.184;2023-04-03T13:32:55;0.63;;;0.63;;
17528;SDS011;8882;53.192;8.184;2023-04-03T13:35:27;1.97;;;0.80;;
17528;SDS011;8882;53.192;8.184;2023-04-03T13:37:56;0.90;;;0.77;;
17528;SDS011;8882;53.192;8.184;2023-04-03T13:40:25;4.43;;;0.70;;
17528;SDS011;8882;53.192;8.184;2023-04-03T13:43:14;0.90;;;0.80;;
17528;SDS011;8882;53.192;8.184;2023-04-03T13:48:34;2.53;;;0.70;;
17528;SDS011;8882;53.192;8.184;2023-04-03T13:53:43;0.70;;;0.70;;
17528;SDS011;8882;53.192;8.184;2023-04-03T13:56:13;0.60;;;0.60;;
17528;SDS011;8882;53.192;8.184;2023-04-03T13:58:55;0.97;;;0.80;;
17528;SDS011;8882;53.192;8.184;2023-04-03T14:01:33;0.93;;;0.83;;
17528;SDS011;8882;53.192;8.184;2023-04-03T14:04:15;1.10;;;0.80;;
17528;SDS011;8882;53.192;8.184;2023-04-03T14:06:46;1.30;;;0.97;;
17528;SDS011;8882;53.192;8.184;2023-04-03T14:09:13;0.80;;;0.80;;
17528;SDS011;8882;53.192;8.184;2023-04-03T14:11:40;0.87;;;0.87;;
17528;SDS011;8882;53.192;8.184;2023-04-03T14:14:10;0.97;;;0.73;;
17528;SDS011;8882;53.192;8.184;2023-04-03T14:16:42;2.93;;;0.60;;
17528;SDS011;8882;53.192;8.184;2023-04-03T14:19:17;0.70;;;0.70;;
17528;SDS011;8882;53.192;8.184;2023-04-03T14:21:45;0.80;;;0.80;;
17528;SDS011;8882;53.192;8.184;2023-04-03T14:24:12;1.23;;;0.80;;
17528;SDS011;8882;53.192;8.184;2023-04-03T14:26:37;1.43;;;0.90;;
17528;SDS011;8882;53.192;8.184;2023-04-03T14:29:03;1.77;;;1.03;;
17528;SDS011;8882;53.192;8.184;2023-04-03T14:31:29;4.23;;;1.40;;
17528;SDS011;8882;53.192;8.184;2023-04-03T14:33:54;1.53;;;1.00;;
17528;SDS011;8882;53.192;8.184;2023-04-03T14:36:21;1.13;;;1.00;;
17528;SDS011;8882;53.192;8.184;2023-04-03T14:38:51;0.70;;;0.70;;
17528;SDS011;8882;53.192;8.184;2023-04-03T14:41:18;1.17;;;0.90;;
17528;SDS011;8882;53.192;8.184;2023-04-03T14:43:46;1.40;;;0.80;;
17528;SDS011;8882;53.192;8.184;2023-04-03T14:46:14;1.43;;;1.03;;
17528;SDS011;8882;53.192;8.184;2023-04-03T14:48:42;2.00;;;0.90;;
17528;SDS011;8882;53.192;8.184;2023-04-03T14:51:10;0.90;;;0.90;;
17528;SDS011;8882;53.192;8.184;2023-04-03T14:53:36;0.90;;;0.80;;
17528;SDS011;8882;53.192;8.184;2023-04-03T14:56:05;1.23;;;0.67;;
17528;SDS011;8882;53.192;8.184;2023-04-03T14:58:37;0.90;;;0.70;;
17528;SDS011;8882;53.192;8.184;2023-04-03T15:01:02;1.70;;;0.70;;
17528;SDS011;8882;53.192;8.184;2023-04-03T15:03:28;0.60;;;0.60;;
17528;SDS011;8882;53.192;8.184;2023-04-03T15:05:54;1.10;;;0.70;;
17528;SDS011;8882;53.192;8.184;2023-04-03T15:08:24;2.20;;;0.80;;
17528;SDS011;8882;53.192;8.184;2023-04-03T15:10:51;1.20;;;0.53;;
17528;SDS011;8882;53.192;8.184;2023-04-03T15:13:21;1.00;;;0.60;;
17528;SDS011;8882;53.192;8.184;2023-04-03T15:15:47;3.03;;;0.80;;
17528;SDS011;8882;53.192;8.184;2023-04-03T15:18:20;0.90;;;0.80;;
17528;SDS011;8882;53.192;8.184;2023-04-03T15:20:47;1.40;;;0.90;;
17528;SDS011;8882;53.192;8.184;2023-04-03T15:23:16;1.60;;;0.70;;
17528;SDS011;8882;53.192;8.184;2023-04-03T15:25:42;0.80;;;0.80;;
17528;SDS011;8882;53.192;8.184;2023-04-03T15:28:29;0.80;;;0.80;;
17528;SDS011;8882;53.192;8.184;2023-04-03T15:31:05;0.67;;;0.63;;
17528;SDS011;8882;53.192;8.184;2023-04-03T15:33:32;0.87;;;0.73;;
17528;SDS011;8882;53.192;8.184;2023-04-03T15:35:58;2.17;;;0.97;;
17528;SDS011;8882;53.192;8.184;2023-04-03T15:38:23;2.87;;;1.07;;
17528;SDS011;8882;53.192;8.184;2023-04-03T15:40:49;1.07;;;0.80;;
17528;SDS011;8882;53.192;8.184;2023-04-03T15:43:15;0.90;;;0.73;;
17528;SDS011;8882;53.192;8.184;2023-04-03T15:45:40;2.50;;;0.90;;
17528;SDS011;8882;53.192;8.184;2023-04-03T15:48:07;2.07;;;0.80;;
17528;SDS011;8882;53.192;8.184;2023-04-03T15:50:34;0.93;;;0.80;;
17528;SDS011;8882;53.192;8.184;2023-04-03T15:53:00;2.33;;;0.97;;
17528;SDS011;8882;53.192;8.184;2023-04-03T15:55:27;1.10;;;0.80;;
17528;SDS011;8882;53.192;8.184;2023-04-03T15:57:55;2.20;;;1.33;;
17528;SDS011;8882;53.192;8.184;2023-04-03T16:00:21;1.30;;;1.10;;
17528;SDS011;8882;53.192;8.184;2023-04-03T16:02:47;3.00;;;0.90;;
17528;SDS011;8882;53.192;8.184;2023-04-03T16:05:15;2.10;;;0.93;;
17528;SDS011;8882;53.192;8.184;2023-04-03T16:07:43;2.70;;;1.20;;
17528;SDS011;8882;53.192;8.184;2023-04-03T16:10:09;1.63;;;0.80;;
17528;SDS011;8882;53.192;8.184;2023-04-03T16:12:36;1.17;;;1.03;;
17528;SDS011;8882;53.192;8.184;2023-04-03T16:15:02;1.10;;;1.00;;
17528;SDS011;8882;53.192;8.184;2023-04-03T16:17:29;1.53;;;0.93;;
17528;SDS011;8882;53.192;8.184;2023-04-03T16:19:57;1.50;;;1.03;;
17528;SDS011;8882;53.192;8.184;2023-04-03T16:22:23;1.47;;;1.20;;
17528;SDS011;8882;53.192;8.184;2023-04-03T16:24:50;1.00;;;1.00;;
17528;SDS011;8882;53.192;8.184;2023-04-03T16:27:15;1.30;;;1.03;;
17528;SDS011;8882;53.192;8.184;2023-04-03T16:29:41;3.93;;;1.30;;
17528;SDS011;8882;53.192;8.184;2023-04-03T16:32:07;2.00;;;1.00;;
17528;SDS011;8882;53.192;8.184;2023-04-03T16:34:32;1.80;;;1.13;;
17528;SDS011;8882;53.192;8.184;2023-04-03T16:36:58;4.30;;;1.47;;
17528;SDS011;8882;53.192;8.184;2023-04-03T16:39:24;2.87;;;1.30;;
17528;SDS011;8882;53.192;8.184;2023-04-03T16:41:50;1.63;;;1.10;;
17528;SDS011;8882;53.192;8.184;2023-04-03T16:44:16;1.43;;;1.33;;
17528;SDS011;8882;53.192;8.184;2023-04-03T16:46:41;2.80;;;1.37;;
17528;SDS011;8882;53.192;8.184;2023-04-03T16:49:07;0.90;;;0.90;;
17528;SDS011;8882;53.192;8.184;2023-04-03T16:51:32;2.77;;;1.57;;
17528;SDS011;8882;53.192;8.184;2023-04-03T16:53:58;3.20;;;1.37;;
17528;SDS011;8882;53.192;8.184;2023-04-03T16:56:24;1.30;;;1.20;;
17528;SDS011;8882;53.192;8.184;2023-04-03T16:58:51;1.53;;;1.30;;
17528;SDS011;8882;53.192;8.184;2023-04-03T17:01:18;3.13;;;1.40;;
17528;SDS011;8882;53.192;8.184;2023-04-03T17:03:45;6.50;;;1.50;;
17528;SDS011;8882;53.192;8.184;2023-04-03T17:06:12;3.33;;;1.37;;
17528;SDS011;8882;53.192;8.184;2023-04-03T17:08:42;1.93;;;1.40;;
17528;SDS011;8882;53.192;8.184;2023-04-03T17:11:12;3.50;;;1.30;;
17528;SDS011;8882;53.192;8.184;2023-04-03T17:13:38;2.00;;;1.13;;
17528;SDS011;8882;53.192;8.184;2023-04-03T17:16:04;3.93;;;1.50;;
17528;SDS011;8882;53.192;8.184;2023-04-03T17:18:33;2.33;;;1.47;;
17528;SDS011;8882;53.192;8.184;2023-04-03T17:20:59;1.93;;;1.40;;
17528;SDS011;8882;53.192;8.184;2023-04-03T17:23:26;2.20;;;1.30;;
17528;SDS011;8882;53.192;8.184;2023-04-03T17:25:53;2.47;;;1.40;;
17528;SDS011;8882;53.192;8.184;2023-04-03T17:28:22;2.23;;;1.13;;
17528;SDS011;8882;53.192;8.184;2023-04-03T17:30:56;2.60;;;1.33;;
17528;SDS011;8882;53.192;8.184;2023-04-03T17:33:23;1.70;;;1.30;;
17528;SDS011;8882;53.192;8.184;2023-04-03T17:35:50;1.60;;;1.50;;
17528;SDS011;8882;53.192;8.184;2023-04-03T17:38:16;2.00;;;1.37;;
17528;SDS011;8882;53.192;8.184;2023-04-03T17:40:42;1.37;;;1.27;;
17528;SDS011;8882;53.192;8.184;2023-04-03T17:43:09;2.83;;;1.33;;
17528;SDS011;8882;53.192;8.184;2023-04-03T17:45:35;2.13;;;1.67;;
17528;SDS011;8882;53.192;8.184;2023-04-03T17:48:01;1.73;;;1.53;;
17528;SDS011;8882;53.192;8.184;2023-04-03T17:50:27;1.73;;;1.57;;
17528;SDS011;8882;53.192;8.184;2023-04-03T17:52:53;2.60;;;1.67;;
17528;SDS011;8882;53.192;8.184;2023-04-03T17:55:19;3.87;;;1.70;;
17528;SDS011;8882;53.192;8.184;2023-04-03T17:57:45;4.37;;;1.63;;
17528;SDS011;8882;53.192;8.184;2023-04-03T18:00:10;2.47;;;1.83;;
17528;SDS011;8882;53.192;8.184;2023-04-03T18:02:36;2.17;;;1.43;;
17528;SDS011;8882;53.192;8.184;2023-04-03T18:05:02;3.80;;;1.70;;
17528;SDS011;8882;53.192;8.184;2023-04-03T18:07:28;3.33;;;1.60;;
17528;SDS011;8882;53.192;8.184;2023-04-03T18:09:54;3.83;;;1.37;;
17528;SDS011;8882;53.192;8.184;2023-04-03T18:12:21;1.57;;;1.47;;
17528;SDS011;8882;53.192;8.184;2023-04-03T18:14:47;2.87;;;1.50;;
17528;SDS011;8882;53.192;8.184;2023-04-03T18:17:13;3.27;;;1.50;;
17528;SDS011;8882;53.192;8.184;2023-04-03T18:19:39;1.53;;;1.23;;
17528;SDS011;8882;53.192;8.184;2023-04-03T18:22:06;4.40;;;1.90;;
17528;SDS011;8882;53.192;8.184;2023-04-03T18:24:36;3.23;;;1.40;;
17528;SDS011;8882;53.192;8.184;2023-04-03T18:27:03;1.63;;;1.30;;
17528;SDS011;8882;53.192;8.184;2023-04-03T18:29:34;1.80;;;1.40;;
17528;SDS011;8882;53.192;8.184;2023-04-03T18:32:01;1.43;;;1.20;;
17528;SDS011;8882;53.192;8.184;2023-04-03T18:34:30;1.97;;;1.30;;
17528;SDS011;8882;53.192;8.184;2023-04-03T18:36:56;6.07;;;1.33;;
17528;SDS011;8882;53.192;8.184;2023-04-03T18:39:21;3.73;;;1.77;;
17528;SDS011;8882;53.192;8.184;2023-04-03T18:41:47;2.97;;;1.60;;
17528;SDS011;8882;53.192;8.184;2023-04-03T18:44:14;6.40;;;2.87;;
17528;SDS011;8882;53.192;8.184;2023-04-03T18:46:44;7.23;;;4.60;;
17528;SDS011;8882;53.192;8.184;2023-04-03T18:49:10;7.70;;;6.60;;
17528;SDS011;8882;53.192;8.184;2023-04-03T18:51:37;4.70;;;3.00;;
17528;SDS011;8882;53.192;8.184;2023-04-03T18:54:03;1.80;;;1.70;;
17528;SDS011;8882;53.192;8.184;2023-04-03T18:56:30;1.63;;;1.53;;
17528;SDS011;8882;53.192;8.184;2023-04-03T18:58:55;2.77;;;1.40;;
17528;SDS011;8882;53.192;8.184;2023-04-03T19:01:21;2.97;;;1.50;;
17528;SDS011;8882;53.192;8.184;2023-04-03T19:03:47;4.07;;;1.57;;
17528;SDS011;8882;53.192;8.184;2023-04-03T19:06:12;2.40;;;1.50;;
17528;SDS011;8882;53.192;8.184;2023-04-03T19:08:38;2.70;;;1.53;;
17528;SDS011;8882;53.192;8.184;2023-04-03T19:11:04;3.43;;;1.30;;
17528;SDS011;8882;53.192;8.184;2023-04-03T19:13:31;3.50;;;1.60;;
17528;SDS011;8882;53.192;8.184;2023-04-03T19:15:56;2.63;;;1.13;;
17528;SDS011;8882;53.192;8.184;2023-04-03T19:18:24;2.97;;;1.90;;
17528;SDS011;8882;53.192;8.184;2023-04-03T19:20:50;3.50;;;1.80;;
17528;SDS011;8882;53.192;8.184;2023-04-03T19:23:16;2.33;;;1.83;;
17528;SDS011;8882;53.192;8.184;2023-04-03T19:25:41;1.90;;;1.33;;
17528;SDS011;8882;53.192;8.184;2023-04-03T19:28:07;3.17;;;1.47;;
17528;SDS011;8882;53.192;8.184;2023-04-03T19:30:32;1.77;;;1.67;;
17528;SDS011;8882;53.192;8.184;2023-04-03T19:32:58;4.20;;;2.37;;
17528;SDS011;8882;53.192;8.184;2023-04-03T19:35:24;111.67;;;38.57;;
17528;SDS011;8882;53.192;8.184;2023-04-03T19:37:49;105.23;;;40.37;;
17528;SDS011;8882;53.192;8.184;2023-04-03T19:40:17;30.33;;;13.03;;
17528;SDS011;8882;53.192;8.184;2023-04-03T19:42:42;8.30;;;4.33;;
17528;SDS011;8882;53.192;8.184;2023-04-03T19:45:09;7.87;;;2.60;;
17528;SDS011;8882;53.192;8.184;2023-04-03T19:47:36;2.60;;;1.90;;
17528;SDS011;8882;53.192;8.184;2023-04-03T19:50:02;18.70;;;8.80;;
17528;SDS011;8882;53.192;8.184;2023-04-03T19:52:28;77.93;;;29.90;;
17528;SDS011;8882;53.192;8.184;2023-04-03T19:54:54;36.60;;;16.50;;
17528;SDS011;8882;53.192;8.184;2023-04-03T19:57:19;11.97;;;5.73;;
17528;SDS011;8882;53.192;8.184;2023-04-03T19:59:45;6.60;;;2.77;;
17528;SDS011;8882;53.192;8.184;2023-04-03T20:02:10;2.67;;;1.90;;
17528;SDS011;8882;53.192;8.184;2023-04-03T20:04:36;2.00;;;1.73;;
17528;SDS011;8882;53.192;8.184;2023-04-03T20:07:02;3.63;;;1.50;;
17528;SDS011;8882;53.192;8.184;2023-04-03T20:09:28;3.10;;;2.00;;
17528;SDS011;8882;53.192;8.184;2023-04-03T20:11:53;5.17;;;1.97;;
17528;SDS011;8882;53.192;8.184;2023-04-03T20:14:21;5.77;;;1.90;;
17528;SDS011;8882;53.192;8.184;2023-04-03T20:16:47;5.93;;;2.93;;
17528;SDS011;8882;53.192;8.184;2023-04-03T20:19:13;26.43;;;13.20;;
17528;SDS011;8882;53.192;8.184;2023-04-03T20:21:39;25.63;;;15.23;;
17528;SDS011;8882;53.192;8.184;2023-04-03T20:24:05;12.03;;;5.97;;
17528;SDS011;8882;53.192;8.184;2023-04-03T20:26:32;5.53;;;4.77;;
17528;SDS011;8882;53.192;8.184;2023-04-03T20:29:01;6.10;;;3.50;;
17528;SDS011;8882;53.192;8.184;2023-04-03T20:31:27;3.40;;;2.30;;
17528;SDS011;8882;53.192;8.184;2023-04-03T20:33:54;3.83;;;2.00;;
17528;SDS011;8882;53.192;8.184;2023-04-03T20:36:20;4.37;;;1.70;;
17528;SDS011;8882;53.192;8.184;2023-04-03T20:38:47;3.13;;;1.80;;
17528;SDS011;8882;53.192;8.184;2023-04-03T20:41:13;3.50;;;2.10;;
17528;SDS011;8882;53.192;8.184;2023-04-03T20:43:40;3.17;;;2.27;;
17528;SDS011;8882;53.192;8.184;2023-04-03T20:46:06;3.87;;;2.10;;
17528;SDS011;8882;53.192;8.184;2023-04-03T20:48:34;2.90;;;2.30;;
17528;SDS011;8882;53.192;8.184;2023-04-03T20:51:07;4.40;;;2.00;;
17528;SDS011;8882;53.192;8.184;2023-04-03T20:53:37;2.27;;;1.93;;
17528;SDS011;8882;53.192;8.184;2023-04-03T20:56:03;4.37;;;2.30;;
17528;SDS011;8882;53.192;8.184;2023-04-03T20:58:33;3.73;;;2.20;;
